PAAQ METAR and TAF weather

Enter ICAO airport designator
Station Type Date Time Source
PAAQ METAR 2021/07/28 19:53 UTC NOAA

PAAQ 281953Z 23004KT 10SM SCT010 BKN015 OVC070 14/12 A3016 RMK AO2 RAE26 SLP215 P0001 T01390117


Station Type Date Time Source
PAAQ Decoded METAR 2021/07/28 19:53 UTC NOAA

PALMER MUNICIPAL AIRPORT, AK, United States (PAAQ) 61-36N 149-06W
Jul 28, 2021 - 03:53 PM EDT / 2021.07.28 1953 UTC
Wind: from the SW (230 degrees) at 5 MPH (4 KT):0
Visibility: 10 mile(s):0
Sky conditions: overcast
Precipitation last hour: 0.01 inches
Temperature: 57.0 F (13.9 C)
Dew Point: 53.1 F (11.7 C)
Relative Humidity: 86%
Pressure (altimeter): 30.16 in. Hg (1021 hPa)
ob: PAAQ 281953Z 23004KT 10SM SCT010 BKN015 OVC070 14/12 A3016 RMK AO2 RAE26 SLP215 P0001 T01390117
cycle: 20

Station Type Date Time Source
PAAQ TAF 2021/07/28 19:15 UTC NOAA

TAF
AMD PAAQ 281913Z 2819/2918 16004KT P6SM VCSH SCT015 OVC040
TEMPO 2819/2821 -RA BKN030

Example: see airport list